createdAt,value
2023-04-21T00:01:35.519Z,97799.72
2023-04-21T00:03:38.945Z,97803.56
2023-04-21T00:05:42.699Z,97812.41
2023-04-21T00:07:45.923Z,97810.09
2023-04-21T00:09:49.011Z,97799.91
2023-04-21T00:11:52.047Z,97802.69
2023-04-21T00:13:56.149Z,97804.66
2023-04-21T00:16:00.581Z,97800.41
2023-04-21T00:18:03.764Z,97798.53
2023-04-21T00:20:09.050Z,97794.38
2023-04-21T00:22:14.973Z,97794.56
2023-04-21T00:24:18.206Z,97786.03
2023-04-21T00:26:21.359Z,97789.56
2023-04-21T00:28:26.238Z,97787.06
2023-04-21T00:30:29.305Z,97781.97
2023-04-21T00:32:35.644Z,97771.03
2023-04-21T00:34:38.907Z,97772.97
2023-04-21T00:36:41.893Z,97773.94
2023-04-21T00:38:45.000Z,97772.97
2023-04-21T00:40:48.072Z,97766.16
2023-04-21T00:42:51.197Z,97770.03
2023-04-21T00:44:54.359Z,97769.50
2023-04-21T00:46:57.501Z,97767.91
2023-04-21T00:49:04.549Z,97762.00
2023-04-21T00:51:07.667Z,97771.53
2023-04-21T00:53:11.243Z,97762.19
2023-04-21T00:55:14.582Z,97760.50
2023-04-21T00:57:18.653Z,97771.09
2023-04-21T00:59:22.058Z,97767.00
2023-04-21T01:01:25.193Z,97764.31
2023-04-21T01:03:28.435Z,97754.03
2023-04-21T01:05:33.701Z,97755.59
2023-04-21T01:07:36.964Z,97759.88
2023-04-21T01:09:40.073Z,97765.16
2023-04-21T01:11:43.104Z,97768.56
2023-04-21T01:13:46.147Z,97758.28
2023-04-21T01:15:49.324Z,97754.03
2023-04-21T01:17:54.340Z,97752.47
2023-04-21T01:19:58.232Z,97750.88
2023-04-21T01:22:04.891Z,97759.50
2023-04-21T01:24:08.550Z,97750.88
2023-04-21T01:26:11.715Z,97747.38
2023-04-21T01:28:14.785Z,97751.72
2023-04-21T01:30:17.811Z,97747.47
2023-04-21T01:32:23.417Z,97746.63
2023-04-21T01:34:28.930Z,97737.00
2023-04-21T01:36:32.090Z,97741.44
2023-04-21T01:38:39.517Z,97730.13
2023-04-21T01:40:43.118Z,97732.81
2023-04-21T01:42:46.314Z,97732.72
2023-04-21T01:44:50.735Z,97732.81
2023-04-21T01:46:54.050Z,97725.88
2023-04-21T01:48:57.178Z,97724.94
2023-04-21T01:51:00.388Z,97737.72
2023-04-21T01:53:03.574Z,97735.88
2023-04-21T01:55:08.803Z,97735.78
2023-04-21T01:57:12.075Z,97736.53
2023-04-21T01:59:16.532Z,97740.03
2023-04-21T02:01:19.763Z,97740.78
2023-04-21T02:03:23.054Z,97738.09
2023-04-21T02:05:26.347Z,97736.34
2023-04-21T02:07:29.421Z,97737.88
2023-04-21T02:09:33.042Z,97736.06
2023-04-21T02:11:37.473Z,97746.44
2023-04-21T02:13:40.569Z,97754.94
2023-04-21T02:15:43.841Z,97752.25
2023-04-21T02:17:47.630Z,97740.19
2023-04-21T02:19:50.723Z,97736.97
2023-04-21T02:21:53.855Z,97745.56
2023-04-21T02:23:58.182Z,97756.63
2023-04-21T02:26:02.909Z,97749.75
2023-04-21T02:28:12.455Z,97748.75
2023-04-21T02:30:15.647Z,97751.16
2023-04-21T02:32:25.438Z,97748.47
2023-04-21T02:34:29.556Z,97749.19
2023-04-21T02:36:32.567Z,97744.72
2023-04-21T02:38:35.695Z,97746.59
2023-04-21T02:40:38.778Z,97747.69
2023-04-21T02:42:41.784Z,97735.19
2023-04-21T02:44:46.920Z,97739.94
2023-04-21T02:46:50.110Z,97731.63
2023-04-21T02:48:53.192Z,97737.09
2023-04-21T02:50:56.244Z,97731.25
2023-04-21T02:52:59.321Z,97723.69
2023-04-21T02:55:03.402Z,97727.38
2023-04-21T02:57:06.753Z,97728.38
2023-04-21T02:59:11.455Z,97736.06
2023-04-21T03:01:17.621Z,97733.66
2023-04-21T03:03:21.023Z,97739.91
2023-04-21T03:05:24.213Z,97751.09
2023-04-21T03:07:27.196Z,97751.09
2023-04-21T03:09:30.376Z,97747.50
2023-04-21T03:11:33.418Z,97743.94
2023-04-21T03:13:36.535Z,97744.72
2023-04-21T03:15:39.600Z,97748.75
2023-04-21T03:17:44.109Z,97755.63
2023-04-21T03:19:47.245Z,97747.84
2023-04-21T03:21:50.356Z,97748.13
2023-04-21T03:23:54.259Z,97741.44
2023-04-21T03:25:57.268Z,97741.63
2023-04-21T03:28:00.354Z,97737.31
2023-04-21T03:30:03.914Z,97729.81
2023-04-21T03:32:07.136Z,97728.13
2023-04-21T03:34:11.606Z,97731.53
2023-04-21T03:36:15.436Z,97729.03
2023-04-21T03:38:18.585Z,97730.19
2023-04-21T03:40:22.527Z,97731.91
2023-04-21T03:42:26.283Z,97725.09
2023-04-21T03:44:29.801Z,97733.69
2023-04-21T03:46:32.916Z,97719.03
2023-04-21T03:48:36.478Z,97729.41
2023-04-21T03:50:40.929Z,97725.81
2023-04-21T03:52:44.002Z,97722.50
2023-04-21T03:54:47.036Z,97728.50
2023-04-21T03:56:50.142Z,97712.22
2023-04-21T03:58:53.351Z,97724.41
2023-04-21T04:00:56.412Z,97733.03
2023-04-21T04:02:59.625Z,97729.69
2023-04-21T04:05:03.621Z,97731.75
2023-04-21T04:07:10.055Z,97721.47
2023-04-21T04:09:13.102Z,97725.19
2023-04-21T04:11:16.266Z,97725.38
2023-04-21T04:13:19.497Z,97727.97
2023-04-21T04:15:22.547Z,97729.59
2023-04-21T04:17:25.733Z,97729.69
2023-04-21T04:19:31.951Z,97732.47
2023-04-21T04:21:35.199Z,97731.66
2023-04-21T04:23:39.499Z,97737.66
2023-04-21T04:25:42.824Z,97741.28
2023-04-21T04:27:46.402Z,97750.88
2023-04-21T04:29:49.827Z,97751.84
2023-04-21T04:31:53.224Z,97746.66
2023-04-21T04:33:56.347Z,97744.88
2023-04-21T04:36:01.900Z,97742.19
2023-04-21T04:38:04.923Z,97741.28
2023-04-21T04:40:12.125Z,97745.69
2023-04-21T04:42:15.177Z,97761.34
2023-04-21T04:44:19.005Z,97768.47
2023-04-21T04:46:22.490Z,97779.00
2023-04-21T04:48:26.387Z,97772.16
2023-04-21T04:50:29.516Z,97770.59
2023-04-21T04:52:32.715Z,97758.09
2023-04-21T04:54:36.344Z,97759.59
2023-04-21T04:56:40.730Z,97756.06
2023-04-21T04:58:46.448Z,97763.75
2023-04-21T05:00:49.452Z,97772.66
2023-04-21T05:02:52.572Z,97769.28
2023-04-21T05:04:55.789Z,97773.75
2023-04-21T05:06:58.913Z,97784.03
2023-04-21T05:09:02.049Z,97785.69
2023-04-21T05:11:05.297Z,97783.56
2023-04-21T05:13:09.680Z,97769.25
2023-04-21T05:15:12.807Z,97762.56
2023-04-21T05:17:16.259Z,97769.81
2023-04-21T05:19:19.356Z,97770.25
2023-04-21T05:21:27.808Z,97787.03
2023-04-21T05:23:31.041Z,97778.88
2023-04-21T05:25:34.364Z,97788.88
2023-04-21T05:27:37.411Z,97792.84
2023-04-21T05:29:41.964Z,97789.78
2023-04-21T05:31:45.077Z,97785.63
2023-04-21T05:33:48.189Z,97787.44
2023-04-21T05:35:52.453Z,97791.97
2023-04-21T05:37:58.210Z,97790.53
2023-04-21T05:40:01.262Z,97792.03
2023-04-21T05:42:04.772Z,97794.25
2023-04-21T05:44:08.340Z,97795.84
2023-04-21T05:46:12.800Z,97794.41
2023-04-21T05:48:16.038Z,97795.13
2023-04-21T05:50:19.206Z,97807.50
2023-04-21T05:52:22.850Z,97807.50
2023-04-21T05:54:25.973Z,97814.75
2023-04-21T05:56:29.118Z,97815.81
2023-04-21T05:58:32.222Z,97803.63
2023-04-21T06:00:35.333Z,97807.91
2023-04-21T06:02:39.953Z,97810.41
2023-04-21T06:04:43.543Z,97803.44
2023-04-21T06:06:46.790Z,97797.22
2023-04-21T06:08:49.877Z,97789.22
2023-04-21T06:10:52.971Z,97786.22
2023-04-21T06:12:56.919Z,97781.75
2023-04-21T06:14:59.949Z,97781.47
2023-04-21T06:17:03.043Z,97779.69
2023-04-21T06:19:07.470Z,97781.34
2023-04-21T06:21:10.599Z,97782.81
2023-04-21T06:23:13.652Z,97779.81
2023-04-21T06:25:16.748Z,97781.19
2023-04-21T06:27:19.964Z,97780.66
2023-04-21T06:29:23.030Z,97784.53
2023-04-21T06:31:26.305Z,97779.66
2023-04-21T06:33:29.802Z,97783.28
2023-04-21T06:35:34.366Z,97779.84
2023-04-21T06:37:37.492Z,97789.31
2023-04-21T06:39:40.515Z,97789.53
2023-04-21T06:41:43.935Z,97793.59
2023-04-21T06:43:47.057Z,97796.91
2023-04-21T06:45:50.211Z,97789.75
2023-04-21T06:47:53.289Z,97792.13
2023-04-21T06:49:56.407Z,97796.38
2023-04-21T06:52:01.017Z,97795.34
2023-04-21T06:54:04.270Z,97797.75
2023-04-21T06:56:07.932Z,97794.00
2023-04-21T06:58:11.351Z,97796.38
2023-04-21T07:00:15.505Z,97802.91
2023-04-21T07:02:18.674Z,97799.06
2023-04-21T07:04:21.969Z,97794.78
2023-04-21T07:06:25.006Z,97803.09
2023-04-21T07:08:29.485Z,97800.94
2023-04-21T07:10:32.518Z,97800.75
2023-04-21T07:12:35.639Z,97804.66
2023-04-21T07:14:38.713Z,97805.47
2023-04-21T07:16:41.891Z,97804.38
2023-04-21T07:18:45.110Z,97805.06
2023-04-21T07:20:48.212Z,97808.97
2023-04-21T07:22:51.376Z,97797.38
2023-04-21T07:24:55.886Z,97794.53
2023-04-21T07:26:58.908Z,97795.44
2023-04-21T07:29:02.058Z,97792.81
2023-04-21T07:31:05.464Z,97789.91
2023-04-21T07:33:09.196Z,97788.50
2023-04-21T07:35:12.308Z,97792.28
2023-04-21T07:37:15.310Z,97782.44
2023-04-21T07:39:18.532Z,97783.78
2023-04-21T07:41:23.270Z,97779.88
2023-04-21T07:43:26.910Z,97771.44
2023-04-21T07:45:30.031Z,97772.13
2023-04-21T07:47:33.445Z,97768.47
2023-04-21T07:49:36.634Z,97772.41
2023-04-21T07:51:40.272Z,97773.13
2023-04-21T07:53:43.440Z,97760.34
2023-04-21T07:55:47.125Z,97762.47
2023-04-21T07:57:54.182Z,97755.38
2023-04-21T07:59:57.274Z,97754.31
2023-04-21T08:02:00.646Z,97762.75
2023-04-21T08:04:03.934Z,97767.50
2023-04-21T08:06:08.256Z,97758.72
2023-04-21T08:08:11.392Z,97764.44
2023-04-21T08:10:14.984Z,97757.44
2023-04-21T08:12:18.268Z,97770.72
2023-04-21T08:14:23.083Z,97761.34
2023-04-21T08:16:26.147Z,97767.06
2023-04-21T08:18:29.426Z,97770.28
2023-04-21T08:20:33.179Z,97767.06
2023-04-21T08:22:36.804Z,97764.34
2023-04-21T08:24:39.961Z,97766.38
2023-04-21T08:26:43.074Z,97761.97
2023-04-21T08:28:48.826Z,97769.44
2023-04-21T08:30:53.292Z,97777.28
2023-04-21T08:32:56.418Z,97777.28
2023-04-21T08:34:59.492Z,97773.72
2023-04-21T08:37:02.605Z,97769.06
2023-04-21T08:39:05.685Z,97767.03
2023-04-21T08:41:09.690Z,97764.63
2023-04-21T08:43:13.380Z,97767.25
2023-04-21T08:45:16.787Z,97763.41
2023-04-21T08:47:22.109Z,97770.81
2023-04-21T08:49:25.817Z,97778.50
2023-04-21T08:51:30.300Z,97783.44
2023-04-21T08:53:33.414Z,97792.22
2023-04-21T08:55:36.713Z,97783.75
2023-04-21T08:57:39.942Z,97777.50
2023-04-21T08:59:42.982Z,97786.63
2023-04-21T09:02:08.828Z,97783.91
2023-04-21T09:04:19.740Z,97792.28
2023-04-21T09:06:23.520Z,97785.75
2023-04-21T09:08:28.547Z,97796.91
2023-04-21T09:10:31.582Z,97797.63
2023-04-21T09:12:34.689Z,97792.28
2023-04-21T09:14:37.690Z,97786.94
2023-04-21T09:16:40.898Z,97790.56
2023-04-21T09:18:44.434Z,97783.63
2023-04-21T09:20:51.174Z,97793.03
2023-04-21T09:22:55.292Z,97788.34
2023-04-21T09:25:00.802Z,97788.59
2023-04-21T09:27:04.938Z,97784.09
2023-04-21T09:29:08.231Z,97776.81
2023-04-21T09:31:16.580Z,97768.13
2023-04-21T09:33:28.043Z,97771.69
2023-04-21T09:35:34.958Z,97773.66
2023-04-21T09:37:39.948Z,97782.16
2023-04-21T09:40:03.634Z,97780.81
2023-04-21T09:42:08.122Z,97773.94
2023-04-21T09:44:11.256Z,97773.84
2023-04-21T09:46:14.680Z,97775.22
2023-04-21T09:48:20.605Z,97772.44
2023-04-21T09:51:07.183Z,97765.75
2023-04-21T09:52:52.352Z,97764.13
2023-04-21T09:54:59.812Z,97763.94
2023-04-21T09:57:05.174Z,97767.97
2023-04-21T09:59:08.796Z,97775.97
2023-04-21T10:01:13.205Z,97774.47
2023-04-21T10:03:18.675Z,97775.63
2023-04-21T10:05:21.960Z,97775.75
2023-04-21T10:07:25.253Z,97763.25
2023-04-21T10:09:33.036Z,97770.41
2023-04-21T10:11:37.171Z,97758.63
2023-04-21T10:13:41.366Z,97756.28
2023-04-21T10:15:44.589Z,97751.47
2023-04-21T10:17:49.386Z,97749.97
2023-04-21T10:19:53.654Z,97740.53
2023-04-21T10:21:57.554Z,97736.56
2023-04-21T10:24:00.687Z,97730.84
2023-04-21T10:26:07.808Z,97729.56
2023-04-21T10:28:11.021Z,97738.97
2023-04-21T10:30:22.565Z,97736.78
2023-04-21T10:32:33.297Z,97738.38
2023-04-21T10:34:37.969Z,97733.25
2023-04-21T10:36:45.041Z,97721.53
2023-04-21T10:38:56.612Z,97715.13
2023-04-21T10:41:27.141Z,97715.41
2023-04-21T10:43:45.208Z,97719.09
2023-04-21T10:45:49.758Z,97718.56
2023-04-21T10:47:54.407Z,97719.19
2023-04-21T10:49:58.387Z,97709.41
2023-04-21T10:52:06.216Z,97714.91
2023-04-21T10:54:09.329Z,97722.31
2023-04-21T10:56:14.012Z,97713.91
2023-04-21T10:58:17.837Z,97719.72
2023-04-21T11:00:23.035Z,97709.78
2023-04-21T11:02:26.472Z,97707.66
2023-04-21T11:04:30.472Z,97713.59
2023-04-21T11:06:34.118Z,97715.03
2023-04-21T11:08:56.055Z,97711.66
2023-04-21T11:10:59.720Z,97705.56
2023-04-21T11:13:04.215Z,97706.69
2023-04-21T11:15:09.167Z,97702.56
2023-04-21T11:17:14.403Z,97696.91
2023-04-21T11:19:17.554Z,97694.72
2023-04-21T11:21:22.038Z,97692.63
2023-04-21T11:23:25.302Z,97685.84
2023-04-21T11:25:28.360Z,97695.28
2023-04-21T11:27:31.693Z,97689.97
2023-04-21T11:29:36.252Z,97690.53
2023-04-21T11:31:41.284Z,97695.63
2023-04-21T11:33:44.973Z,97687.84
2023-04-21T11:35:48.090Z,97689.44
2023-04-21T11:37:52.513Z,97682.63
2023-04-21T11:39:59.697Z,97678.66
2023-04-21T11:42:03.268Z,97678.59
2023-04-21T11:44:08.041Z,97682.00
2023-04-21T11:46:18.849Z,97691.66
2023-04-21T11:48:22.023Z,97687.72
2023-04-21T11:50:32.511Z,97695.09
2023-04-21T11:52:37.669Z,97689.38
2023-04-21T11:54:40.981Z,97685.41
2023-04-21T11:56:45.153Z,97673.03
2023-04-21T11:58:48.641Z,97677.19
2023-04-21T12:00:52.008Z,97673.19
2023-04-21T12:02:57.912Z,97679.97
2023-04-21T12:05:03.016Z,97672.72
2023-04-21T12:07:06.649Z,97669.31
2023-04-21T12:09:09.873Z,97664.53
2023-04-21T12:11:12.985Z,97658.59
2023-04-21T12:13:23.933Z,97673.16
2023-04-21T12:15:27.119Z,97665.75
2023-04-21T12:17:37.807Z,97668.72
2023-04-21T12:19:43.065Z,97660.13
2023-04-21T12:21:46.237Z,97666.78
2023-04-21T12:23:49.406Z,97671.28
2023-04-21T12:25:52.498Z,97663.84
2023-04-21T12:28:00.215Z,97659.56
2023-04-21T12:30:03.607Z,97658.25
2023-04-21T12:32:08.578Z,97653.63
2023-04-21T12:34:11.959Z,97648.03
2023-04-21T12:36:16.802Z,97656.97
2023-04-21T12:38:19.882Z,97651.03
2023-04-21T12:40:23.258Z,97643.56
2023-04-21T12:42:26.463Z,97640.59
2023-04-21T12:44:29.718Z,97637.81
2023-04-21T12:46:32.833Z,97639.63
2023-04-21T12:48:35.912Z,97639.63
2023-04-21T12:50:39.104Z,97626.91
2023-04-21T12:52:43.822Z,97626.50
2023-04-21T12:54:46.941Z,97619.28
2023-04-21T12:56:50.070Z,97616.97
2023-04-21T12:58:53.130Z,97612.03
2023-04-21T13:00:56.439Z,97611.06
2023-04-21T13:03:00.058Z,97609.13
2023-04-21T13:05:04.955Z,97614.56
2023-04-21T13:07:08.095Z,97608.13
2023-04-21T13:09:12.628Z,97597.41
2023-04-21T13:11:15.745Z,97598.69
2023-04-21T13:13:19.078Z,97606.13
2023-04-21T13:15:22.318Z,97606.50
2023-04-21T13:17:25.911Z,97601.53
2023-04-21T13:19:30.038Z,97602.06
2023-04-21T13:21:33.758Z,97603.72
2023-04-21T13:23:36.937Z,97588.03
2023-04-21T13:25:41.799Z,97583.88
2023-04-21T13:27:46.776Z,97584.19
2023-04-21T13:29:49.828Z,97581.22
2023-04-21T13:31:52.881Z,97583.88
2023-04-21T13:33:56.533Z,97580.78
2023-04-21T13:35:59.843Z,97578.13
2023-04-21T13:38:02.917Z,97565.94
2023-04-21T13:40:08.146Z,97570.09
2023-04-21T13:42:12.653Z,97565.78
2023-04-21T13:44:16.043Z,97557.53
2023-04-21T13:46:19.803Z,97566.94
2023-04-21T13:48:24.292Z,97563.78
2023-04-21T13:50:27.717Z,97557.03
2023-04-21T13:52:31.116Z,97558.34
2023-04-21T13:54:34.595Z,97560.31
2023-04-21T13:56:37.801Z,97559.34
2023-04-21T13:58:42.379Z,97551.09
2023-04-21T14:00:45.466Z,97548.59
2023-04-21T14:02:49.493Z,97543.31
2023-04-21T14:04:53.527Z,97535.91
2023-04-21T14:06:56.858Z,97541.66
2023-04-21T14:09:00.036Z,97540.34
2023-04-21T14:11:04.243Z,97541.31
2023-04-21T14:13:07.442Z,97538.16
2023-04-21T14:15:13.113Z,97547.25
2023-04-21T14:17:17.084Z,97538.84
2023-04-21T14:19:20.230Z,97536.53
2023-04-21T14:21:23.496Z,97535.53
2023-04-21T14:23:26.686Z,97531.38
2023-04-21T14:25:29.715Z,97526.44
2023-04-21T14:27:33.850Z,97525.09
2023-04-21T14:29:37.095Z,97526.59
2023-04-21T14:31:41.874Z,97525.44
2023-04-21T14:33:45.067Z,97517.97
2023-04-21T14:35:48.212Z,97520.63
2023-04-21T14:37:53.341Z,97508.38
2023-04-21T14:39:57.826Z,97512.38
2023-04-21T14:42:01.737Z,97506.59
2023-04-21T14:44:04.906Z,97512.38
2023-04-21T14:46:08.126Z,97514.34
2023-04-21T14:48:14.101Z,97498.44
2023-04-21T14:50:17.467Z,97492.69
2023-04-21T14:52:20.784Z,97494.53
2023-04-21T14:54:24.155Z,97494.19
2023-04-21T14:56:27.413Z,97494.81
2023-04-21T14:58:30.688Z,97491.03
2023-04-21T15:00:34.920Z,97491.31
2023-04-21T15:02:39.546Z,97486.00
2023-04-21T15:04:44.331Z,97487.78
2023-04-21T15:06:47.627Z,97481.31
2023-04-21T15:08:51.071Z,97480.81
2023-04-21T15:10:54.180Z,97480.81
2023-04-21T15:12:57.276Z,97484.13
2023-04-21T15:15:00.549Z,97481.16
2023-04-21T15:17:03.954Z,97477.66
2023-04-21T15:19:07.386Z,97476.84
2023-04-21T15:21:11.916Z,97473.03
2023-04-21T15:23:15.273Z,97474.16
2023-04-21T15:25:18.601Z,97480.91
2023-04-21T15:27:21.858Z,97473.00
2023-04-21T15:29:25.102Z,97475.16
2023-04-21T15:31:29.158Z,97473.69
2023-04-21T15:33:32.270Z,97479.44
2023-04-21T15:35:35.415Z,97472.69
2023-04-21T15:37:39.899Z,97471.84
2023-04-21T15:39:43.062Z,97472.19
2023-04-21T15:41:46.175Z,97465.63
2023-04-21T15:43:49.337Z,97473.22
2023-04-21T15:45:52.601Z,97470.28
2023-04-21T15:47:55.916Z,97461.03
2023-04-21T15:49:59.108Z,97458.91
2023-04-21T15:52:03.368Z,97458.78
2023-04-21T15:54:07.780Z,97465.44
2023-04-21T15:56:12.278Z,97466.72
2023-04-21T15:58:15.612Z,97468.06
2023-04-21T16:00:19.262Z,97458.00
2023-04-21T16:02:22.714Z,97455.22
2023-04-21T16:04:26.140Z,97457.72
2023-04-21T16:06:30.805Z,97451.47
2023-04-21T16:08:34.121Z,97451.00
2023-04-21T16:10:38.548Z,97447.53
2023-04-21T16:12:44.551Z,97452.31
2023-04-21T16:14:56.050Z,97454.47
2023-04-21T16:17:05.229Z,97456.94
2023-04-21T16:19:08.599Z,97452.47
2023-04-21T16:21:11.696Z,97453.66
2023-04-21T16:23:15.160Z,97450.34
2023-04-21T16:25:18.859Z,97445.56
2023-04-21T16:27:24.806Z,97453.03
2023-04-21T16:29:28.021Z,97448.06
2023-04-21T16:31:31.480Z,97446.75
2023-04-21T16:33:34.737Z,97449.09
2023-04-21T16:35:38.518Z,97442.84
2023-04-21T16:37:44.233Z,97438.06
2023-04-21T16:39:47.349Z,97436.56
2023-04-21T16:41:50.634Z,97433.28
2023-04-21T16:43:55.081Z,97431.63
2023-04-21T16:45:58.276Z,97433.63
2023-04-21T16:48:01.556Z,97437.06
2023-04-21T16:50:05.804Z,97422.22
2023-04-21T16:52:08.891Z,97435.25
2023-04-21T16:54:12.190Z,97439.06
2023-04-21T16:56:15.569Z,97431.47
2023-04-21T16:58:18.850Z,97436.03
2023-04-21T17:00:23.390Z,97438.84
2023-04-21T17:02:27.905Z,97436.22
2023-04-21T17:04:31.158Z,97430.94
2023-04-21T17:06:34.270Z,97436.22
2023-04-21T17:08:37.392Z,97436.88
2023-04-21T17:10:40.610Z,97433.56
2023-04-21T17:12:43.904Z,97425.66
2023-04-21T17:14:48.553Z,97426.84
2023-04-21T17:16:53.120Z,97434.75
2023-04-21T17:18:57.106Z,97435.72
2023-04-21T17:21:00.289Z,97433.25
2023-04-21T17:23:03.437Z,97433.59
2023-04-21T17:25:07.344Z,97433.91
2023-04-21T17:27:11.264Z,97437.53
2023-04-21T17:29:14.659Z,97430.97
2023-04-21T17:31:17.940Z,97430.31
2023-04-21T17:33:22.517Z,97434.91
2023-04-21T17:35:25.687Z,97433.28
2023-04-21T17:37:30.083Z,97435.56
2023-04-21T17:39:33.464Z,97431.47
2023-04-21T17:41:37.066Z,97429.97
2023-04-21T17:43:40.289Z,97433.59
2023-04-21T17:45:43.447Z,97432.94
2023-04-21T17:47:46.606Z,97435.91
2023-04-21T17:49:51.212Z,97428.47
2023-04-21T17:51:54.470Z,97429.78
2023-04-21T17:53:57.548Z,97435.56
2023-04-21T17:56:01.235Z,97442.31
2023-04-21T17:58:04.469Z,97446.94
2023-04-21T18:00:11.412Z,97451.72
2023-04-21T18:02:14.658Z,97457.31
2023-04-21T18:04:18.636Z,97453.34
2023-04-21T18:06:23.308Z,97454.66
2023-04-21T18:08:26.864Z,97450.53
2023-04-21T18:10:30.202Z,97453.47
2023-04-21T18:12:33.397Z,97455.47
2023-04-21T18:14:36.713Z,97463.69
2023-04-21T18:16:40.073Z,97464.19
2023-04-21T18:18:43.352Z,97462.69
2023-04-21T18:20:46.670Z,97460.88
2023-04-21T18:22:51.957Z,97459.22
2023-04-21T18:24:55.461Z,97459.22
2023-04-21T18:26:58.577Z,97462.81
2023-04-21T18:29:02.918Z,97462.00
2023-04-21T18:31:06.203Z,97469.25
2023-04-21T18:33:09.641Z,97464.44
2023-04-21T18:35:12.744Z,97467.41
2023-04-21T18:37:15.895Z,97474.66
2023-04-21T18:39:20.558Z,97473.16
2023-04-21T18:41:23.665Z,97479.56
2023-04-21T18:43:26.774Z,97481.53
2023-04-21T18:45:29.930Z,97487.13
2023-04-21T18:47:33.014Z,97482.16
2023-04-21T18:49:36.237Z,97487.75
2023-04-21T18:51:39.332Z,97490.69
2023-04-21T18:53:43.637Z,97500.91
2023-04-21T18:55:48.133Z,97502.19
2023-04-21T18:57:51.293Z,97500.84
2023-04-21T18:59:54.532Z,97507.25
2023-04-21T19:01:57.880Z,97501.34
2023-04-21T19:04:01.282Z,97503.81
2023-04-21T19:06:04.842Z,97506.28
2023-04-21T19:08:09.796Z,97507.09
2023-04-21T19:10:13.062Z,97507.25
2023-04-21T19:12:17.592Z,97506.28
2023-04-21T19:14:20.930Z,97512.38
2023-04-21T19:16:24.108Z,97507.41
2023-04-21T19:18:27.421Z,97512.03
2023-04-21T19:20:32.345Z,97516.59
2023-04-21T19:22:36.253Z,97522.88
2023-04-21T19:24:39.808Z,97530.78
2023-04-21T19:26:43.168Z,97534.38
2023-04-21T19:28:47.571Z,97521.22
2023-04-21T19:30:50.787Z,97532.41
2023-04-21T19:32:53.871Z,97527.13
2023-04-21T19:34:57.076Z,97537.00
2023-04-21T19:37:00.442Z,97537.81
2023-04-21T19:39:04.077Z,97542.28
2023-04-21T19:41:07.144Z,97545.53
2023-04-21T19:43:10.292Z,97545.47
2023-04-21T19:45:15.217Z,97543.31
2023-04-21T19:47:18.292Z,97535.19
2023-04-21T19:49:21.463Z,97531.53
2023-04-21T19:51:24.732Z,97531.84
2023-04-21T19:53:27.965Z,97536.59
2023-04-21T19:55:31.239Z,97534.41
2023-04-21T19:57:34.499Z,97527.75
2023-04-21T19:59:37.796Z,97529.72
2023-04-21T20:01:42.506Z,97534.44
2023-04-21T20:03:47.838Z,97529.63
2023-04-21T20:05:51.402Z,97536.88
2023-04-21T20:07:54.843Z,97538.53
2023-04-21T20:09:58.704Z,97539.34
2023-04-21T20:12:02.007Z,97540.16
2023-04-21T20:14:05.072Z,97537.31
2023-04-21T20:16:08.238Z,97541.22
2023-04-21T20:18:13.052Z,97534.47
2023-04-21T20:20:16.615Z,97532.31
2023-04-21T20:22:19.805Z,97534.56
2023-04-21T20:24:23.171Z,97530.56
2023-04-21T20:26:26.681Z,97530.06
2023-04-21T20:28:29.804Z,97534.63
2023-04-21T20:30:32.919Z,97532.28
2023-04-21T20:32:36.632Z,97523.88
2023-04-21T20:34:41.473Z,97533.03
2023-04-21T20:36:44.804Z,97530.84
2023-04-21T20:38:49.347Z,97537.41
2023-04-21T20:40:53.186Z,97531.47
2023-04-21T20:42:56.314Z,97536.34
2023-04-21T20:45:02.119Z,97540.41
2023-04-21T20:47:05.509Z,97539.84
2023-04-21T20:49:08.823Z,97547.06
2023-04-21T20:51:13.955Z,97544.06
2023-04-21T20:53:17.343Z,97544.34
2023-04-21T20:55:20.686Z,97547.41
2023-04-21T20:57:26.710Z,97549.34
2023-04-21T20:59:29.845Z,97550.47
2023-04-21T21:01:36.811Z,97548.16
2023-04-21T21:03:40.296Z,97550.25
2023-04-21T21:05:43.588Z,97554.09
2023-04-21T21:07:48.522Z,97549.94
2023-04-21T21:09:52.070Z,97548.47
2023-04-21T21:11:55.331Z,97546.94
2023-04-21T21:13:58.620Z,97548.06
2023-04-21T21:16:01.814Z,97544.75
2023-04-21T21:18:05.607Z,97535.34
2023-04-21T21:20:09.791Z,97545.03
2023-04-21T21:22:12.872Z,97545.31
2023-04-21T21:24:17.365Z,97549.22
2023-04-21T21:26:20.593Z,97539.69
2023-04-21T21:28:23.778Z,97545.22
2023-04-21T21:30:26.996Z,97547.16
2023-04-21T21:32:30.176Z,97549.94
2023-04-21T21:34:33.399Z,97542.34
2023-04-21T21:36:36.564Z,97550.38
2023-04-21T21:38:39.776Z,97542.66
2023-04-21T21:40:44.251Z,97533.25
2023-04-21T21:42:47.351Z,97538.66
2023-04-21T21:44:50.430Z,97542.38
2023-04-21T21:46:53.566Z,97539.06
2023-04-21T21:48:56.674Z,97537.41
2023-04-21T21:50:59.798Z,97538.69
2023-04-21T21:53:02.994Z,97533.59
2023-04-21T21:55:07.220Z,97533.88
2023-04-21T21:57:11.651Z,97528.75
2023-04-21T21:59:14.738Z,97525.44
2023-04-21T22:01:18.346Z,97526.41
2023-04-21T22:03:22.037Z,97519.66
2023-04-21T22:05:25.472Z,97522.41
2023-04-21T22:07:29.407Z,97516.50
2023-04-21T22:09:32.430Z,97515.78
2023-04-21T22:11:36.933Z,97515.94
2023-04-21T22:13:41.510Z,97519.53
2023-04-21T22:15:44.620Z,97515.25
2023-04-21T22:17:47.948Z,97508.34
2023-04-21T22:19:51.039Z,97509.31
2023-04-21T22:21:54.377Z,97517.34
2023-04-21T22:23:57.459Z,97512.09
2023-04-21T22:26:00.559Z,97513.06
2023-04-21T22:28:03.686Z,97509.09
2023-04-21T22:30:09.486Z,97512.66
2023-04-21T22:32:12.654Z,97504.13
2023-04-21T22:34:16.783Z,97514.75
2023-04-21T22:36:20.143Z,97511.56
2023-04-21T22:38:23.303Z,97518.75
2023-04-21T22:40:26.466Z,97518.91
2023-04-21T22:42:29.595Z,97513.78
2023-04-21T22:44:32.667Z,97518.22
2023-04-21T22:46:37.878Z,97527.06
2023-04-21T22:48:41.360Z,97525.53
2023-04-21T22:50:44.859Z,97524.72
2023-04-21T22:52:48.027Z,97530.09
2023-04-21T22:54:51.131Z,97532.84
2023-04-21T22:56:54.305Z,97526.09
2023-04-21T22:58:57.526Z,97528.03
2023-04-21T23:01:00.707Z,97518.91
2023-04-21T23:03:05.462Z,97519.91
2023-04-21T23:05:09.453Z,97518.22
2023-04-21T23:07:12.825Z,97517.41
2023-04-21T23:09:16.347Z,97514.91
2023-04-21T23:11:19.439Z,97519.34
2023-04-21T23:13:22.511Z,97525.53
2023-04-21T23:15:26.897Z,97516.28
2023-04-21T23:17:29.998Z,97522.78
2023-04-21T23:19:34.467Z,97520.56
2023-04-21T23:21:37.523Z,97519.06
2023-04-21T23:23:40.754Z,97524.56
2023-04-21T23:25:43.761Z,97526.38
2023-04-21T23:27:47.008Z,97534.25
2023-04-21T23:29:50.054Z,97534.25
2023-04-21T23:31:53.177Z,97529.81
2023-04-21T23:33:56.263Z,97534.25
2023-04-21T23:36:00.725Z,97539.47
2023-04-21T23:38:03.907Z,97535.88
2023-04-21T23:40:11.321Z,97532.28
2023-04-21T23:42:14.450Z,97529.69
2023-04-21T23:44:17.517Z,97528.00
2023-04-21T23:46:20.636Z,97524.56
2023-04-21T23:48:24.167Z,97530.78
2023-04-21T23:50:27.315Z,97522.09
2023-04-21T23:52:31.817Z,97521.28
2023-04-21T23:54:35.608Z,97518.78
2023-04-21T23:56:38.788Z,97525.66
2023-04-21T23:58:41.883Z,97520.69
